sensor_id;sensor_type;location;lat;lon;timestamp;P1;durP1;ratioP1;P2;durP2;ratioP2
23543;SDS011;11950;51.230;4.012;2024-02-04T00:01:55;12.05;;;6.50;;
23543;SDS011;11950;51.230;4.012;2024-02-04T00:04:21;16.17;;;6.25;;
23543;SDS011;11950;51.230;4.012;2024-02-04T00:06:49;19.10;;;6.82;;
23543;SDS011;11950;51.230;4.012;2024-02-04T00:09:15;15.98;;;6.40;;
23543;SDS011;11950;51.230;4.012;2024-02-04T00:11:41;14.00;;;6.22;;
23543;SDS011;11950;51.230;4.012;2024-02-04T00:14:08;13.40;;;7.05;;
23543;SDS011;11950;51.230;4.012;2024-02-04T00:16:34;14.27;;;6.22;;
23543;SDS011;11950;51.230;4.012;2024-02-04T00:19:00;13.85;;;6.70;;
23543;SDS011;11950;51.230;4.012;2024-02-04T00:21:26;17.08;;;7.03;;
23543;SDS011;11950;51.230;4.012;2024-02-04T00:23:53;17.38;;;6.32;;
23543;SDS011;11950;51.230;4.012;2024-02-04T00:26:19;13.50;;;6.88;;
23543;SDS011;11950;51.230;4.012;2024-02-04T00:28:45;15.15;;;5.78;;
23543;SDS011;11950;51.230;4.012;2024-02-04T00:31:12;13.68;;;6.88;;
23543;SDS011;11950;51.230;4.012;2024-02-04T00:33:38;12.75;;;6.82;;
23543;SDS011;11950;51.230;4.012;2024-02-04T00:36:04;15.15;;;6.80;;
23543;SDS011;11950;51.230;4.012;2024-02-04T00:38:31;12.88;;;6.72;;
23543;SDS011;11950;51.230;4.012;2024-02-04T00:40:57;16.70;;;6.80;;
23543;SDS011;11950;51.230;4.012;2024-02-04T00:43:23;14.60;;;7.47;;
23543;SDS011;11950;51.230;4.012;2024-02-04T00:45:49;17.23;;;6.90;;
23543;SDS011;11950;51.230;4.012;2024-02-04T00:48:16;19.40;;;7.75;;
23543;SDS011;11950;51.230;4.012;2024-02-04T00:50:42;16.13;;;7.60;;
23543;SDS011;11950;51.230;4.012;2024-02-04T00:53:08;17.17;;;7.57;;
23543;SDS011;11950;51.230;4.012;2024-02-04T00:55:34;16.10;;;7.50;;
23543;SDS011;11950;51.230;4.012;2024-02-04T00:58:00;19.83;;;7.40;;
23543;SDS011;11950;51.230;4.012;2024-02-04T01:00:27;13.95;;;6.95;;
23543;SDS011;11950;51.230;4.012;2024-02-04T01:02:54;16.48;;;6.88;;
23543;SDS011;11950;51.230;4.012;2024-02-04T01:05:20;14.82;;;7.20;;
23543;SDS011;11950;51.230;4.012;2024-02-04T01:07:46;17.65;;;7.32;;
23543;SDS011;11950;51.230;4.012;2024-02-04T01:10:12;15.00;;;7.93;;
23543;SDS011;11950;51.230;4.012;2024-02-04T01:12:39;19.77;;;7.65;;
23543;SDS011;11950;51.230;4.012;2024-02-04T01:15:05;14.90;;;7.45;;
23543;SDS011;11950;51.230;4.012;2024-02-04T01:17:32;15.95;;;7.30;;
23543;SDS011;11950;51.230;4.012;2024-02-04T01:19:59;19.00;;;8.05;;
23543;SDS011;11950;51.230;4.012;2024-02-04T01:22:25;17.92;;;7.97;;
23543;SDS011;11950;51.230;4.012;2024-02-04T01:24:53;15.20;;;7.68;;
23543;SDS011;11950;51.230;4.012;2024-02-04T01:27:19;18.15;;;7.85;;
23543;SDS011;11950;51.230;4.012;2024-02-04T01:29:45;23.50;;;7.88;;
23543;SDS011;11950;51.230;4.012;2024-02-04T01:32:11;16.92;;;7.40;;
23543;SDS011;11950;51.230;4.012;2024-02-04T01:34:38;18.23;;;7.30;;
23543;SDS011;11950;51.230;4.012;2024-02-04T01:37:04;16.05;;;7.53;;
23543;SDS011;11950;51.230;4.012;2024-02-04T01:39:30;16.88;;;7.35;;
23543;SDS011;11950;51.230;4.012;2024-02-04T01:41:57;21.52;;;8.32;;
23543;SDS011;11950;51.230;4.012;2024-02-04T01:44:24;17.42;;;7.90;;
23543;SDS011;11950;51.230;4.012;2024-02-04T01:46:50;18.20;;;8.18;;
23543;SDS011;11950;51.230;4.012;2024-02-04T01:49:16;21.23;;;8.00;;
23543;SDS011;11950;51.230;4.012;2024-02-04T01:51:42;14.10;;;7.65;;
23543;SDS011;11950;51.230;4.012;2024-02-04T01:54:09;16.50;;;7.40;;
23543;SDS011;11950;51.230;4.012;2024-02-04T01:56:36;17.00;;;7.32;;
23543;SDS011;11950;51.230;4.012;2024-02-04T01:59:02;17.48;;;7.53;;
23543;SDS011;11950;51.230;4.012;2024-02-04T02:01:29;15.18;;;6.53;;
23543;SDS011;11950;51.230;4.012;2024-02-04T02:03:56;14.23;;;6.88;;
23543;SDS011;11950;51.230;4.012;2024-02-04T02:06:23;17.80;;;6.90;;
23543;SDS011;11950;51.230;4.012;2024-02-04T02:08:49;12.32;;;6.95;;
23543;SDS011;11950;51.230;4.012;2024-02-04T02:11:21;17.55;;;7.15;;
23543;SDS011;11950;51.230;4.012;2024-02-04T02:14:14;13.60;;;6.75;;
23543;SDS011;11950;51.230;4.012;2024-02-04T02:16:57;17.20;;;7.15;;
23543;SDS011;11950;51.230;4.012;2024-02-04T02:19:36;18.42;;;7.03;;
23543;SDS011;11950;51.230;4.012;2024-02-04T02:24:37;16.67;;;6.35;;
23543;SDS011;11950;51.230;4.012;2024-02-04T02:27:07;15.98;;;6.63;;
23543;SDS011;11950;51.230;4.012;2024-02-04T02:29:33;17.67;;;6.82;;
23543;SDS011;11950;51.230;4.012;2024-02-04T02:32:01;15.25;;;6.97;;
23543;SDS011;11950;51.230;4.012;2024-02-04T02:34:29;20.83;;;7.07;;
23543;SDS011;11950;51.230;4.012;2024-02-04T02:37:00;16.98;;;6.85;;
23543;SDS011;11950;51.230;4.012;2024-02-04T02:39:57;15.88;;;7.13;;
23543;SDS011;11950;51.230;4.012;2024-02-04T02:42:27;15.48;;;7.18;;
23543;SDS011;11950;51.230;4.012;2024-02-04T02:44:54;24.00;;;8.48;;
23543;SDS011;11950;51.230;4.012;2024-02-04T02:47:22;21.75;;;7.95;;
23543;SDS011;11950;51.230;4.012;2024-02-04T02:49:52;18.85;;;8.15;;
23543;SDS011;11950;51.230;4.012;2024-02-04T02:52:20;21.13;;;8.88;;
23543;SDS011;11950;51.230;4.012;2024-02-04T02:54:47;24.98;;;9.93;;
23543;SDS011;11950;51.230;4.012;2024-02-04T02:57:13;21.67;;;8.90;;
23543;SDS011;11950;51.230;4.012;2024-02-04T02:59:39;19.98;;;9.82;;
23543;SDS011;11950;51.230;4.012;2024-02-04T03:02:06;16.75;;;9.68;;
23543;SDS011;11950;51.230;4.012;2024-02-04T03:04:32;21.80;;;9.20;;
23543;SDS011;11950;51.230;4.012;2024-02-04T03:06:58;20.25;;;9.18;;
23543;SDS011;11950;51.230;4.012;2024-02-04T03:09:24;17.17;;;9.43;;
23543;SDS011;11950;51.230;4.012;2024-02-04T03:11:51;18.90;;;9.48;;
23543;SDS011;11950;51.230;4.012;2024-02-04T03:14:17;18.70;;;9.98;;
23543;SDS011;11950;51.230;4.012;2024-02-04T03:16:44;23.52;;;11.57;;
23543;SDS011;11950;51.230;4.012;2024-02-04T03:19:10;21.75;;;10.45;;
23543;SDS011;11950;51.230;4.012;2024-02-04T03:21:37;23.02;;;10.07;;
23543;SDS011;11950;51.230;4.012;2024-02-04T03:24:03;18.15;;;10.95;;
23543;SDS011;11950;51.230;4.012;2024-02-04T03:26:30;21.60;;;11.38;;
23543;SDS011;11950;51.230;4.012;2024-02-04T03:28:56;17.00;;;9.68;;
23543;SDS011;11950;51.230;4.012;2024-02-04T03:31:22;22.35;;;9.73;;
23543;SDS011;11950;51.230;4.012;2024-02-04T03:33:50;21.95;;;9.07;;
23543;SDS011;11950;51.230;4.012;2024-02-04T03:36:21;19.45;;;8.75;;
23543;SDS011;11950;51.230;4.012;2024-02-04T03:38:49;17.88;;;8.98;;
23543;SDS011;11950;51.230;4.012;2024-02-04T03:41:16;14.30;;;7.75;;
23543;SDS011;11950;51.230;4.012;2024-02-04T03:43:43;19.88;;;8.43;;
23543;SDS011;11950;51.230;4.012;2024-02-04T03:46:16;14.40;;;8.23;;
23543;SDS011;11950;51.230;4.012;2024-02-04T03:48:43;13.80;;;8.13;;
23543;SDS011;11950;51.230;4.012;2024-02-04T03:51:14;11.25;;;8.48;;
23543;SDS011;11950;51.230;4.012;2024-02-04T03:53:42;12.52;;;8.32;;
23543;SDS011;11950;51.230;4.012;2024-02-04T03:56:08;15.10;;;8.63;;
23543;SDS011;11950;51.230;4.012;2024-02-04T03:58:35;20.58;;;9.07;;
23543;SDS011;11950;51.230;4.012;2024-02-04T04:01:01;13.27;;;8.02;;
23543;SDS011;11950;51.230;4.012;2024-02-04T04:03:27;12.13;;;8.05;;
23543;SDS011;11950;51.230;4.012;2024-02-04T04:05:54;15.43;;;7.75;;
23543;SDS011;11950;51.230;4.012;2024-02-04T04:08:20;16.58;;;8.27;;
23543;SDS011;11950;51.230;4.012;2024-02-04T04:10:46;13.18;;;7.65;;
23543;SDS011;11950;51.230;4.012;2024-02-04T04:13:13;13.75;;;8.05;;
23543;SDS011;11950;51.230;4.012;2024-02-04T04:15:39;16.80;;;8.98;;
23543;SDS011;11950;51.230;4.012;2024-02-04T04:18:06;15.88;;;9.27;;
23543;SDS011;11950;51.230;4.012;2024-02-04T04:20:32;15.57;;;8.68;;
23543;SDS011;11950;51.230;4.012;2024-02-04T04:22:59;18.15;;;8.90;;
23543;SDS011;11950;51.230;4.012;2024-02-04T04:25:25;16.10;;;8.68;;
23543;SDS011;11950;51.230;4.012;2024-02-04T04:27:51;19.92;;;9.65;;
23543;SDS011;11950;51.230;4.012;2024-02-04T04:30:17;21.30;;;10.02;;
23543;SDS011;11950;51.230;4.012;2024-02-04T04:32:44;24.50;;;10.15;;
23543;SDS011;11950;51.230;4.012;2024-02-04T04:35:10;21.92;;;10.07;;
23543;SDS011;11950;51.230;4.012;2024-02-04T04:37:36;20.30;;;11.18;;
23543;SDS011;11950;51.230;4.012;2024-02-04T04:40:02;17.95;;;10.25;;
23543;SDS011;11950;51.230;4.012;2024-02-04T04:42:29;19.63;;;10.75;;
23543;SDS011;11950;51.230;4.012;2024-02-04T04:44:55;19.65;;;11.85;;
23543;SDS011;11950;51.230;4.012;2024-02-04T04:47:21;15.10;;;9.65;;
23543;SDS011;11950;51.230;4.012;2024-02-04T04:49:47;20.42;;;10.20;;
23543;SDS011;11950;51.230;4.012;2024-02-04T04:52:14;16.55;;;10.10;;
23543;SDS011;11950;51.230;4.012;2024-02-04T04:54:40;19.35;;;9.95;;
23543;SDS011;11950;51.230;4.012;2024-02-04T04:57:06;17.67;;;9.80;;
23543;SDS011;11950;51.230;4.012;2024-02-04T04:59:32;15.85;;;10.00;;
23543;SDS011;11950;51.230;4.012;2024-02-04T05:01:58;21.88;;;9.05;;
23543;SDS011;11950;51.230;4.012;2024-02-04T05:04:25;19.17;;;9.68;;
23543;SDS011;11950;51.230;4.012;2024-02-04T05:06:51;20.65;;;10.57;;
23543;SDS011;11950;51.230;4.012;2024-02-04T05:09:17;15.55;;;10.02;;
23543;SDS011;11950;51.230;4.012;2024-02-04T05:11:43;20.38;;;10.52;;
23543;SDS011;11950;51.230;4.012;2024-02-04T05:14:10;18.50;;;10.32;;
23543;SDS011;11950;51.230;4.012;2024-02-04T05:16:36;18.13;;;10.77;;
23543;SDS011;11950;51.230;4.012;2024-02-04T05:19:02;22.80;;;11.45;;
23543;SDS011;11950;51.230;4.012;2024-02-04T05:21:29;20.02;;;11.00;;
23543;SDS011;11950;51.230;4.012;2024-02-04T05:23:55;20.60;;;11.27;;
23543;SDS011;11950;51.230;4.012;2024-02-04T05:26:21;21.95;;;11.27;;
23543;SDS011;11950;51.230;4.012;2024-02-04T05:28:47;17.33;;;9.85;;
23543;SDS011;11950;51.230;4.012;2024-02-04T05:31:14;20.77;;;10.25;;
23543;SDS011;11950;51.230;4.012;2024-02-04T05:33:40;16.92;;;9.80;;
23543;SDS011;11950;51.230;4.012;2024-02-04T05:36:06;20.13;;;10.55;;
23543;SDS011;11950;51.230;4.012;2024-02-04T05:38:32;19.63;;;9.55;;
23543;SDS011;11950;51.230;4.012;2024-02-04T05:40:59;20.95;;;9.35;;
23543;SDS011;11950;51.230;4.012;2024-02-04T05:43:26;20.55;;;9.88;;
23543;SDS011;11950;51.230;4.012;2024-02-04T05:45:52;22.85;;;11.32;;
23543;SDS011;11950;51.230;4.012;2024-02-04T05:48:18;22.15;;;10.55;;
23543;SDS011;11950;51.230;4.012;2024-02-04T05:50:45;23.33;;;11.30;;
23543;SDS011;11950;51.230;4.012;2024-02-04T05:53:11;26.08;;;11.05;;
23543;SDS011;11950;51.230;4.012;2024-02-04T05:55:37;23.92;;;11.93;;
23543;SDS011;11950;51.230;4.012;2024-02-04T05:58:04;21.20;;;11.48;;
23543;SDS011;11950;51.230;4.012;2024-02-04T06:00:30;21.55;;;10.38;;
23543;SDS011;11950;51.230;4.012;2024-02-04T06:02:56;19.30;;;9.98;;
23543;SDS011;11950;51.230;4.012;2024-02-04T06:05:23;25.70;;;10.23;;
23543;SDS011;11950;51.230;4.012;2024-02-04T06:07:49;21.85;;;9.70;;
23543;SDS011;11950;51.230;4.012;2024-02-04T06:10:15;18.88;;;9.10;;
23543;SDS011;11950;51.230;4.012;2024-02-04T06:12:44;20.50;;;9.43;;
23543;SDS011;11950;51.230;4.012;2024-02-04T06:15:14;19.05;;;9.55;;
23543;SDS011;11950;51.230;4.012;2024-02-04T06:17:41;19.15;;;10.20;;
23543;SDS011;11950;51.230;4.012;2024-02-04T06:20:08;18.10;;;10.02;;
23543;SDS011;11950;51.230;4.012;2024-02-04T06:22:35;22.73;;;9.65;;
23543;SDS011;11950;51.230;4.012;2024-02-04T06:25:02;20.52;;;9.10;;
23543;SDS011;11950;51.230;4.012;2024-02-04T06:27:29;20.17;;;9.50;;
23543;SDS011;11950;51.230;4.012;2024-02-04T06:29:56;20.65;;;10.65;;
23543;SDS011;11950;51.230;4.012;2024-02-04T06:32:23;19.30;;;9.65;;
23543;SDS011;11950;51.230;4.012;2024-02-04T06:34:50;20.60;;;10.23;;
23543;SDS011;11950;51.230;4.012;2024-02-04T06:37:17;20.90;;;10.38;;
23543;SDS011;11950;51.230;4.012;2024-02-04T06:39:44;16.70;;;9.98;;
23543;SDS011;11950;51.230;4.012;2024-02-04T06:42:10;18.98;;;10.00;;
23543;SDS011;11950;51.230;4.012;2024-02-04T06:44:37;15.18;;;9.85;;
23543;SDS011;11950;51.230;4.012;2024-02-04T06:47:03;18.95;;;9.65;;
23543;SDS011;11950;51.230;4.012;2024-02-04T06:49:29;15.40;;;9.18;;
23543;SDS011;11950;51.230;4.012;2024-02-04T06:51:55;16.95;;;9.90;;
23543;SDS011;11950;51.230;4.012;2024-02-04T06:54:23;16.80;;;9.90;;
23543;SDS011;11950;51.230;4.012;2024-02-04T06:56:50;17.63;;;10.13;;
23543;SDS011;11950;51.230;4.012;2024-02-04T06:59:18;18.40;;;10.77;;
23543;SDS011;11950;51.230;4.012;2024-02-04T07:01:44;20.08;;;11.85;;
23543;SDS011;11950;51.230;4.012;2024-02-04T07:04:11;20.23;;;11.90;;
23543;SDS011;11950;51.230;4.012;2024-02-04T07:06:37;22.42;;;12.70;;
23543;SDS011;11950;51.230;4.012;2024-02-04T07:09:03;20.90;;;12.50;;
23543;SDS011;11950;51.230;4.012;2024-02-04T07:11:29;20.77;;;11.85;;
23543;SDS011;11950;51.230;4.012;2024-02-04T07:13:56;17.67;;;11.63;;
23543;SDS011;11950;51.230;4.012;2024-02-04T07:16:26;18.90;;;11.15;;
23543;SDS011;11950;51.230;4.012;2024-02-04T07:18:52;17.77;;;10.93;;
23543;SDS011;11950;51.230;4.012;2024-02-04T07:21:20;19.73;;;11.52;;
23543;SDS011;11950;51.230;4.012;2024-02-04T07:23:46;18.10;;;10.93;;
23543;SDS011;11950;51.230;4.012;2024-02-04T07:26:12;24.27;;;12.57;;
23543;SDS011;11950;51.230;4.012;2024-02-04T07:28:39;23.02;;;12.70;;
23543;SDS011;11950;51.230;4.012;2024-02-04T07:31:05;21.80;;;12.30;;
23543;SDS011;11950;51.230;4.012;2024-02-04T07:33:31;18.73;;;11.75;;
23543;SDS011;11950;51.230;4.012;2024-02-04T07:35:57;18.42;;;10.77;;
23543;SDS011;11950;51.230;4.012;2024-02-04T07:38:24;18.05;;;10.20;;
23543;SDS011;11950;51.230;4.012;2024-02-04T07:40:50;19.45;;;9.77;;
23543;SDS011;11950;51.230;4.012;2024-02-04T07:43:16;18.83;;;10.70;;
23543;SDS011;11950;51.230;4.012;2024-02-04T07:45:42;17.40;;;9.73;;
23543;SDS011;11950;51.230;4.012;2024-02-04T07:48:08;13.95;;;8.85;;
23543;SDS011;11950;51.230;4.012;2024-02-04T07:50:35;17.73;;;9.50;;
23543;SDS011;11950;51.230;4.012;2024-02-04T07:53:01;17.00;;;8.70;;
23543;SDS011;11950;51.230;4.012;2024-02-04T07:55:27;16.27;;;8.98;;
23543;SDS011;11950;51.230;4.012;2024-02-04T07:57:53;14.70;;;7.45;;
23543;SDS011;11950;51.230;4.012;2024-02-04T08:00:20;13.45;;;7.90;;
23543;SDS011;11950;51.230;4.012;2024-02-04T08:02:46;11.68;;;6.63;;
23543;SDS011;11950;51.230;4.012;2024-02-04T08:05:13;14.57;;;6.88;;
23543;SDS011;11950;51.230;4.012;2024-02-04T08:07:39;11.38;;;6.55;;
23543;SDS011;11950;51.230;4.012;2024-02-04T08:10:06;14.00;;;5.95;;
23543;SDS011;11950;51.230;4.012;2024-02-04T08:12:33;13.00;;;6.15;;
23543;SDS011;11950;51.230;4.012;2024-02-04T08:15:00;11.30;;;5.28;;
23543;SDS011;11950;51.230;4.012;2024-02-04T08:17:26;12.13;;;5.60;;
23543;SDS011;11950;51.230;4.012;2024-02-04T08:19:56;9.32;;;5.05;;
23543;SDS011;11950;51.230;4.012;2024-02-04T08:22:23;11.00;;;6.15;;
23543;SDS011;11950;51.230;4.012;2024-02-04T08:24:49;11.35;;;5.40;;
23543;SDS011;11950;51.230;4.012;2024-02-04T08:27:16;15.32;;;6.38;;
23543;SDS011;11950;51.230;4.012;2024-02-04T08:29:43;10.55;;;6.07;;
23543;SDS011;11950;51.230;4.012;2024-02-04T08:32:10;11.20;;;7.07;;
23543;SDS011;11950;51.230;4.012;2024-02-04T08:34:38;20.00;;;7.50;;
23543;SDS011;11950;51.230;4.012;2024-02-04T08:37:04;13.40;;;6.75;;
23543;SDS011;11950;51.230;4.012;2024-02-04T08:39:31;11.63;;;6.65;;
23543;SDS011;11950;51.230;4.012;2024-02-04T08:41:57;15.38;;;6.93;;
23543;SDS011;11950;51.230;4.012;2024-02-04T08:44:23;14.43;;;7.15;;
23543;SDS011;11950;51.230;4.012;2024-02-04T08:46:50;14.48;;;7.35;;
23543;SDS011;11950;51.230;4.012;2024-02-04T08:49:16;13.43;;;7.00;;
23543;SDS011;11950;51.230;4.012;2024-02-04T08:51:42;11.63;;;6.88;;
23543;SDS011;11950;51.230;4.012;2024-02-04T08:54:08;13.50;;;6.70;;
23543;SDS011;11950;51.230;4.012;2024-02-04T08:56:34;10.93;;;6.82;;
23543;SDS011;11950;51.230;4.012;2024-02-04T08:59:01;13.25;;;7.10;;
23543;SDS011;11950;51.230;4.012;2024-02-04T09:01:27;12.38;;;6.00;;
23543;SDS011;11950;51.230;4.012;2024-02-04T09:03:54;11.88;;;6.40;;
23543;SDS011;11950;51.230;4.012;2024-02-04T09:06:20;10.38;;;6.03;;
23543;SDS011;11950;51.230;4.012;2024-02-04T09:08:46;10.75;;;5.05;;
23543;SDS011;11950;51.230;4.012;2024-02-04T09:11:12;15.90;;;5.60;;
23543;SDS011;11950;51.230;4.012;2024-02-04T09:13:44;9.80;;;5.00;;
23543;SDS011;11950;51.230;4.012;2024-02-04T09:16:11;13.00;;;5.53;;
23543;SDS011;11950;51.230;4.012;2024-02-04T09:18:37;14.35;;;5.53;;
23543;SDS011;11950;51.230;4.012;2024-02-04T09:21:03;12.45;;;6.00;;
23543;SDS011;11950;51.230;4.012;2024-02-04T09:23:30;11.68;;;5.38;;
23543;SDS011;11950;51.230;4.012;2024-02-04T09:25:56;10.55;;;4.68;;
23543;SDS011;11950;51.230;4.012;2024-02-04T09:28:22;9.35;;;4.90;;
23543;SDS011;11950;51.230;4.012;2024-02-04T09:30:48;9.05;;;5.05;;
23543;SDS011;11950;51.230;4.012;2024-02-04T09:33:14;8.73;;;5.15;;
23543;SDS011;11950;51.230;4.012;2024-02-04T09:35:41;11.70;;;5.53;;
23543;SDS011;11950;51.230;4.012;2024-02-04T09:38:07;8.10;;;5.15;;
23543;SDS011;11950;51.230;4.012;2024-02-04T09:40:33;10.57;;;4.80;;
23543;SDS011;11950;51.230;4.012;2024-02-04T09:43:00;6.05;;;4.00;;
23543;SDS011;11950;51.230;4.012;2024-02-04T09:45:26;8.85;;;4.43;;
23543;SDS011;11950;51.230;4.012;2024-02-04T09:47:53;8.73;;;3.63;;
23543;SDS011;11950;51.230;4.012;2024-02-04T09:50:20;9.77;;;4.10;;
23543;SDS011;11950;51.230;4.012;2024-02-04T09:52:49;6.05;;;4.18;;
23543;SDS011;11950;51.230;4.012;2024-02-04T09:55:21;11.68;;;4.85;;
23543;SDS011;11950;51.230;4.012;2024-02-04T09:57:48;7.78;;;4.57;;
23543;SDS011;11950;51.230;4.012;2024-02-04T10:00:14;8.38;;;4.32;;
23543;SDS011;11950;51.230;4.012;2024-02-04T10:02:47;9.77;;;4.50;;
23543;SDS011;11950;51.230;4.012;2024-02-04T10:05:14;7.40;;;3.88;;
23543;SDS011;11950;51.230;4.012;2024-02-04T10:07:41;6.47;;;3.15;;
23543;SDS011;11950;51.230;4.012;2024-02-04T10:10:08;8.15;;;4.07;;
23543;SDS011;11950;51.230;4.012;2024-02-04T10:12:35;5.22;;;3.25;;
23543;SDS011;11950;51.230;4.012;2024-02-04T10:15:03;6.40;;;2.83;;
23543;SDS011;11950;51.230;4.012;2024-02-04T10:17:31;6.22;;;3.50;;
23543;SDS011;11950;51.230;4.012;2024-02-04T10:19:57;9.40;;;3.08;;
23543;SDS011;11950;51.230;4.012;2024-02-04T10:22:25;4.68;;;2.10;;
23543;SDS011;11950;51.230;4.012;2024-02-04T10:24:53;6.40;;;2.22;;
23543;SDS011;11950;51.230;4.012;2024-02-04T10:27:19;7.03;;;2.40;;
23543;SDS011;11950;51.230;4.012;2024-02-04T10:29:46;4.95;;;2.58;;
23543;SDS011;11950;51.230;4.012;2024-02-04T10:32:12;8.20;;;2.70;;
23543;SDS011;11950;51.230;4.012;2024-02-04T10:34:38;6.80;;;2.28;;
23543;SDS011;11950;51.230;4.012;2024-02-04T10:37:05;5.22;;;2.10;;
23543;SDS011;11950;51.230;4.012;2024-02-04T10:39:31;4.97;;;2.22;;
23543;SDS011;11950;51.230;4.012;2024-02-04T10:42:01;5.10;;;1.95;;
23543;SDS011;11950;51.230;4.012;2024-02-04T10:44:32;6.43;;;2.38;;
23543;SDS011;11950;51.230;4.012;2024-02-04T10:47:01;5.82;;;2.05;;
23543;SDS011;11950;51.230;4.012;2024-02-04T10:49:32;7.70;;;2.13;;
23543;SDS011;11950;51.230;4.012;2024-02-04T10:52:00;2.45;;;2.15;;
23543;SDS011;11950;51.230;4.012;2024-02-04T10:54:28;5.55;;;2.42;;
23543;SDS011;11950;51.230;4.012;2024-02-04T10:56:56;6.30;;;2.35;;
23543;SDS011;11950;51.230;4.012;2024-02-04T10:59:28;3.92;;;2.60;;
23543;SDS011;11950;51.230;4.012;2024-02-04T11:01:56;5.60;;;2.28;;
23543;SDS011;11950;51.230;4.012;2024-02-04T11:04:22;7.65;;;2.65;;
23543;SDS011;11950;51.230;4.012;2024-02-04T11:06:49;5.78;;;2.70;;
23543;SDS011;11950;51.230;4.012;2024-02-04T11:09:16;6.65;;;2.95;;
23543;SDS011;11950;51.230;4.012;2024-02-04T11:11:43;4.57;;;3.20;;
23543;SDS011;11950;51.230;4.012;2024-02-04T11:14:11;7.45;;;3.03;;
23543;SDS011;11950;51.230;4.012;2024-02-04T11:25:11;5.32;;;3.58;;
23543;SDS011;11950;51.230;4.012;2024-02-04T11:27:49;5.63;;;3.55;;
23543;SDS011;11950;51.230;4.012;2024-02-04T11:30:15;7.43;;;3.63;;
23543;SDS011;11950;51.230;4.012;2024-02-04T11:32:42;11.05;;;3.55;;
23543;SDS011;11950;51.230;4.012;2024-02-04T11:35:08;5.93;;;3.65;;
23543;SDS011;11950;51.230;4.012;2024-02-04T11:37:37;7.13;;;3.45;;
23543;SDS011;11950;51.230;4.012;2024-02-04T11:40:04;8.23;;;3.22;;
23543;SDS011;11950;51.230;4.012;2024-02-04T11:42:31;6.00;;;3.10;;
23543;SDS011;11950;51.230;4.012;2024-02-04T11:45:11;8.25;;;3.60;;
23543;SDS011;11950;51.230;4.012;2024-02-04T11:47:38;8.55;;;3.13;;
23543;SDS011;11950;51.230;4.012;2024-02-04T11:50:05;12.00;;;3.38;;
23543;SDS011;11950;51.230;4.012;2024-02-04T11:52:32;9.57;;;3.20;;
23543;SDS011;11950;51.230;4.012;2024-02-04T11:54:59;3.70;;;2.20;;
23543;SDS011;11950;51.230;4.012;2024-02-04T11:57:25;4.15;;;2.58;;
23543;SDS011;11950;51.230;4.012;2024-02-04T11:59:52;7.68;;;2.80;;
23543;SDS011;11950;51.230;4.012;2024-02-04T12:02:22;4.65;;;2.60;;
23543;SDS011;11950;51.230;4.012;2024-02-04T12:04:49;5.78;;;2.53;;
23543;SDS011;11950;51.230;4.012;2024-02-04T12:07:15;2.95;;;2.25;;
23543;SDS011;11950;51.230;4.012;2024-02-04T12:09:43;5.18;;;2.42;;
23543;SDS011;11950;51.230;4.012;2024-02-04T12:12:10;3.88;;;2.42;;
23543;SDS011;11950;51.230;4.012;2024-02-04T12:14:37;7.90;;;2.78;;
23543;SDS011;11950;51.230;4.012;2024-02-04T12:17:11;6.53;;;3.03;;
23543;SDS011;11950;51.230;4.012;2024-02-04T12:19:39;5.53;;;2.45;;
23543;SDS011;11950;51.230;4.012;2024-02-04T12:22:05;5.60;;;2.55;;
23543;SDS011;11950;51.230;4.012;2024-02-04T12:24:38;4.25;;;2.28;;
23543;SDS011;11950;51.230;4.012;2024-02-04T12:27:04;5.00;;;2.30;;
23543;SDS011;11950;51.230;4.012;2024-02-04T12:29:31;5.88;;;1.88;;
23543;SDS011;11950;51.230;4.012;2024-02-04T12:31:58;5.72;;;2.05;;
23543;SDS011;11950;51.230;4.012;2024-02-04T12:34:29;4.75;;;1.63;;
23543;SDS011;11950;51.230;4.012;2024-02-04T12:36:59;4.72;;;1.70;;
23543;SDS011;11950;51.230;4.012;2024-02-04T12:39:26;6.82;;;2.10;;
23543;SDS011;11950;51.230;4.012;2024-02-04T12:41:53;5.50;;;1.98;;
23543;SDS011;11950;51.230;4.012;2024-02-04T12:44:20;5.43;;;1.80;;
23543;SDS011;11950;51.230;4.012;2024-02-04T12:46:50;3.65;;;1.65;;
23543;SDS011;11950;51.230;4.012;2024-02-04T12:49:19;8.48;;;1.73;;
23543;SDS011;11950;51.230;4.012;2024-02-04T12:51:47;3.33;;;1.50;;
23543;SDS011;11950;51.230;4.012;2024-02-04T12:54:14;4.00;;;1.50;;
23543;SDS011;11950;51.230;4.012;2024-02-04T12:56:53;3.20;;;1.33;;
23543;SDS011;11950;51.230;4.012;2024-02-04T12:59:30;4.63;;;1.40;;
23543;SDS011;11950;51.230;4.012;2024-02-04T13:01:57;5.38;;;1.30;;
23543;SDS011;11950;51.230;4.012;2024-02-04T13:04:32;5.25;;;1.40;;
23543;SDS011;11950;51.230;4.012;2024-02-04T13:07:06;2.88;;;1.13;;
23543;SDS011;11950;51.230;4.012;2024-02-04T13:09:35;4.30;;;1.05;;
23543;SDS011;11950;51.230;4.012;2024-02-04T13:12:05;4.93;;;1.02;;
23543;SDS011;11950;51.230;4.012;2024-02-04T13:14:36;5.35;;;1.30;;
23543;SDS011;11950;51.230;4.012;2024-02-04T13:17:02;4.78;;;1.30;;
23543;SDS011;11950;51.230;4.012;2024-02-04T13:19:35;6.00;;;1.30;;
23543;SDS011;11950;51.230;4.012;2024-02-04T13:22:02;4.18;;;1.75;;
23543;SDS011;11950;51.230;4.012;2024-02-04T13:24:29;4.78;;;1.20;;
23543;SDS011;11950;51.230;4.012;2024-02-04T13:26:56;4.60;;;1.30;;
23543;SDS011;11950;51.230;4.012;2024-02-04T13:29:24;5.32;;;1.17;;
23543;SDS011;11950;51.230;4.012;2024-02-04T13:31:50;8.02;;;1.40;;
23543;SDS011;11950;51.230;4.012;2024-02-04T13:34:16;4.50;;;1.30;;
23543;SDS011;11950;51.230;4.012;2024-02-04T13:36:43;4.07;;;1.15;;
23543;SDS011;11950;51.230;4.012;2024-02-04T13:39:09;8.00;;;1.67;;
23543;SDS011;11950;51.230;4.012;2024-02-04T13:41:38;6.57;;;1.40;;
23543;SDS011;11950;51.230;4.012;2024-02-04T13:44:05;10.60;;;2.83;;
23543;SDS011;11950;51.230;4.012;2024-02-04T13:46:31;11.60;;;4.13;;
23543;SDS011;11950;51.230;4.012;2024-02-04T13:48:59;32.58;;;18.30;;
23543;SDS011;11950;51.230;4.012;2024-02-04T13:51:26;53.05;;;21.85;;
23543;SDS011;11950;51.230;4.012;2024-02-04T13:53:52;25.52;;;11.20;;
23543;SDS011;11950;51.230;4.012;2024-02-04T13:56:18;10.98;;;2.60;;
23543;SDS011;11950;51.230;4.012;2024-02-04T13:58:46;6.38;;;1.70;;
23543;SDS011;11950;51.230;4.012;2024-02-04T14:01:12;8.93;;;1.88;;
23543;SDS011;11950;51.230;4.012;2024-02-04T14:03:39;9.65;;;1.80;;
23543;SDS011;11950;51.230;4.012;2024-02-04T14:06:05;8.40;;;1.58;;
23543;SDS011;11950;51.230;4.012;2024-02-04T14:08:31;6.97;;;1.77;;
23543;SDS011;11950;51.230;4.012;2024-02-04T14:10:57;12.68;;;2.17;;
23543;SDS011;11950;51.230;4.012;2024-02-04T14:13:24;5.70;;;1.45;;
23543;SDS011;11950;51.230;4.012;2024-02-04T14:15:50;6.18;;;1.38;;
23543;SDS011;11950;51.230;4.012;2024-02-04T14:18:18;6.13;;;1.60;;
23543;SDS011;11950;51.230;4.012;2024-02-04T14:20:44;8.57;;;1.48;;
23543;SDS011;11950;51.230;4.012;2024-02-04T14:23:10;6.53;;;1.58;;
23543;SDS011;11950;51.230;4.012;2024-02-04T14:25:36;7.78;;;1.67;;
23543;SDS011;11950;51.230;4.012;2024-02-04T14:28:03;9.70;;;1.73;;
23543;SDS011;11950;51.230;4.012;2024-02-04T14:30:30;5.28;;;1.63;;
23543;SDS011;11950;51.230;4.012;2024-02-04T14:32:57;10.18;;;2.22;;
23543;SDS011;11950;51.230;4.012;2024-02-04T14:35:23;6.35;;;1.38;;
23543;SDS011;11950;51.230;4.012;2024-02-04T14:37:49;9.95;;;1.58;;
23543;SDS011;11950;51.230;4.012;2024-02-04T14:40:15;10.85;;;1.40;;
23543;SDS011;11950;51.230;4.012;2024-02-04T14:42:42;11.05;;;1.88;;
23543;SDS011;11950;51.230;4.012;2024-02-04T14:45:08;8.57;;;1.60;;
23543;SDS011;11950;51.230;4.012;2024-02-04T14:47:36;7.97;;;1.60;;